Time;durP1;ratioP1;P1;durP2;ratioP2;P2;SDS_P1;SDS_P2;PMS_P1;PMS_P2;Temp;Humidity;BMP_temperature;BMP_pressure;BME280_temperature;BME280_humidity;BME280_pressure;Samples;Min_cycle;Max_cycle;Signal;HPM_P1;HPM_P2
2022/12/14 00:00:33;;;;;;;;;51.75;40.25;;;;;2.41;100.00;99639.31;5071851;27;45440;-69
2022/12/14 00:02:59;;;;;;;;;55.25;42.75;;;;;2.28;100.00;99608.31;5073005;27;45438;-68
2022/12/14 00:05:27;;;;;;;;;46.50;39.50;;;;;2.44;100.00;99631.69;5081638;27;46087;-75
2022/12/14 00:07:52;;;;;;;;;42.50;36.50;;;;;2.41;100.00;99633.91;5085732;27;45227;-71
2022/12/14 00:10:19;;;;;;;;;43.75;36.25;;;;;2.40;100.00;99633.06;5068278;27;45300;-74
2022/12/14 00:12:44;;;;;;;;;42.00;33.75;;;;;2.40;100.00;99641.19;5072522;27;45379;-76
2022/12/14 00:15:11;;;;;;;;;54.50;40.50;;;;;2.47;100.00;99644.03;5073426;27;45468;-75
2022/12/14 00:17:36;;;;;;;;;45.25;36.00;;;;;2.49;100.00;99647.38;5073449;27;45713;-72
2022/12/14 00:20:02;;;;;;;;;45.50;30.25;;;;;2.44;100.00;99649.78;5071638;27;45739;-74
2022/12/14 00:22:28;;;;;;;;;56.25;40.00;;;;;2.44;100.00;99641.66;5074453;27;45367;-75
2022/12/14 00:24:53;;;;;;;;;52.00;38.00;;;;;2.51;100.00;99645.31;5074800;27;46909;-72
2022/12/14 00:27:18;;;;;;;;;44.00;37.25;;;;;2.52;100.00;99644.31;5061065;27;45423;-73
2022/12/14 00:29:44;;;;;;;;;48.75;39.50;;;;;2.47;100.00;99630.50;5073102;27;45423;-73
2022/12/14 00:32:09;;;;;;;;;52.75;39.75;;;;;2.55;100.00;99635.81;5067161;27;45457;-73
2022/12/14 00:34:34;;;;;;;;;39.75;36.00;;;;;2.63;100.00;99618.63;5067563;27;45420;-68
2022/12/14 00:37:00;;;;;;;;;49.50;37.75;;;;;2.70;100.00;99622.28;5071793;27;45852;-68
2022/12/14 00:39:25;;;;;;;;;47.00;39.00;;;;;2.80;100.00;99614.75;5071133;27;45813;-69
2022/12/14 00:41:51;;;;;;;;;41.75;36.25;;;;;2.73;100.00;99602.13;5065872;27;45497;-73
2022/12/14 00:44:16;;;;;;;;;42.25;36.00;;;;;2.79;100.00;99607.63;5071373;27;46148;-71
2022/12/14 00:46:41;;;;;;;;;40.25;34.75;;;;;2.80;100.00;99605.78;5071849;27;45660;-68
2022/12/14 00:49:07;;;;;;;;;44.50;35.75;;;;;2.75;100.00;99600.06;5056835;27;45698;-68
2022/12/14 00:51:32;;;;;;;;;54.75;41.00;;;;;2.75;100.00;99614.44;5071970;27;45653;-67
2022/12/14 00:53:58;;;;;;;;;44.25;37.00;;;;;2.49;100.00;99593.25;5092266;22;45426;-83
2022/12/14 00:56:23;;;;;;;;;37.25;32.00;;;;;2.56;100.00;99596.91;5055036;28;45397;-81
2022/12/14 00:58:50;;;;;;;;;51.75;39.25;;;;;2.63;100.00;99600.56;5072580;28;45861;-84
2022/12/14 01:01:16;;;;;;;;;47.75;40.50;;;;;2.74;100.00;99610.06;5073295;28;45564;-83
2022/12/14 01:03:42;;;;;;;;;46.25;37.75;;;;;2.63;100.00;99597.84;5073545;28;46122;-81
2022/12/14 01:06:21;;;;;;;;;49.75;37.50;;;;;2.72;100.00;99611.28;5071749;28;45485;-82
2022/12/14 01:08:48;;;;;;;;;37.75;33.25;;;;;2.74;100.00;99606.50;5067762;28;45281;-82
2022/12/14 01:11:14;;;;;;;;;42.25;36.50;;;;;2.56;100.00;99588.78;5073820;28;45719;-82
2022/12/14 01:13:40;;;;;;;;;39.00;32.50;;;;;2.72;100.00;99612.09;5071170;28;45872;-81
2022/12/14 01:16:12;;;;;;;;;49.00;38.00;;;;;2.57;100.00;99605.84;5065744;28;45473;-82
2022/12/14 01:18:39;;;;;;;;;38.00;33.25;;;;;2.70;100.00;99632.28;5060743;28;45447;-82
2022/12/14 01:21:18;;;;;;;;;38.50;31.25;;;;;2.71;100.00;99633.94;5047250;28;46165;-82
2022/12/14 01:23:45;;;;;;;;;38.25;35.75;;;;;2.63;100.00;99626.75;5049963;28;47444;-82
2022/12/14 01:26:12;;;;;;;;;14.75;7.75;;;;;2.67;100.00;99638.91;5067313;28;45429;-82
2022/12/14 01:28:38;;;;;;;;;34.75;31.75;;;;;2.55;100.00;99616.88;5054212;28;45562;-83
2022/12/14 01:31:08;;;;;;;;;43.00;36.50;;;;;2.65;100.00;99624.72;5070621;28;44847;-81
2022/12/14 01:33:34;;;;;;;;;35.25;30.50;;;;;2.59;100.00;99612.78;5073616;28;46929;-84
2022/12/14 01:36:08;;;;;;;;;38.25;33.50;;;;;2.71;100.00;99628.53;5058235;28;45623;-81
2022/12/14 01:38:35;;;;;;;;;49.75;36.50;;;;;2.65;100.00;99611.19;5050313;28;45878;-83
2022/12/14 01:41:00;;;;;;;;;46.75;35.00;;;;;2.50;100.00;99602.19;5077578;28;45443;-82
2022/12/14 01:43:56;;;;;;;;;50.25;35.75;;;;;2.70;100.00;99645.81;5078133;28;45743;-81
2022/12/14 01:46:46;;;;;;;;;35.25;30.00;;;;;2.77;100.00;99657.56;5049063;28;45446;-81
2022/12/14 01:49:33;;;;;;;;;38.00;33.50;;;;;2.80;100.00;99657.22;5074369;28;45428;-80
2022/12/14 01:52:44;;;;;;;;;45.50;36.25;;;;;2.92;100.00;99663.88;5076905;28;45620;-82
2022/12/14 01:55:16;;;;;;;;;41.50;33.00;;;;;2.97;100.00;99663.31;5053544;28;47660;-81
2022/12/14 01:57:58;;;;;;;;;41.50;35.50;;;;;2.96;100.00;99650.78;5075534;28;45892;-81
2022/12/14 02:00:23;;;;;;;;;41.00;35.25;;;;;2.77;100.00;99614.25;5075488;28;45456;-82
2022/12/14 02:03:00;;;;;;;;;41.50;36.00;;;;;2.64;100.00;99610.34;5076787;28;45763;-82
2022/12/14 02:05:29;;;;;;;;;39.75;34.50;;;;;2.90;100.00;99646.94;5056835;28;45651;-81
2022/12/14 02:07:55;;;;;;;;;41.75;34.75;;;;;2.86;100.00;99640.25;5057842;28;45913;-81
2022/12/14 02:10:25;;;;;;;;;41.75;32.75;;;;;2.57;100.00;99631.03;5058877;28;45492;-82
2022/12/14 02:12:59;;;;;;;;;39.75;34.25;;;;;2.52;100.00;99621.81;5077586;28;45471;-80
2022/12/14 02:15:25;;;;;;;;;43.00;33.25;;;;;2.40;100.00;99624.13;5067602;28;46709;-81
2022/12/14 02:17:51;;;;;;;;;49.50;37.00;;;;;2.12;100.00;99584.94;5063737;28;45739;-81
2022/12/14 02:20:17;;;;;;;;;34.00;29.25;;;;;2.30;100.00;99608.13;5067896;28;45310;-81
2022/12/14 02:23:37;;;;;;;;;47.75;37.25;;;;;2.24;100.00;99601.59;5057144;28;47141;-80
2022/12/14 02:26:20;;;;;;;;;37.25;32.00;;;;;2.16;100.00;99596.28;4988726;28;47373;-80
2022/12/14 02:29:23;;;;;;;;;44.75;40.25;;;;;1.98;100.00;99572.25;5058288;28;45835;-81
2022/12/14 02:32:04;;;;;;;;;46.50;38.75;;;;;1.76;100.00;99560.44;5068172;28;45429;-81
2022/12/14 02:34:53;;;;;;;;;49.25;37.00;;;;;1.33;100.00;99514.13;5078250;28;45728;-80
2022/12/14 02:37:32;;;;;;;;;47.25;37.25;;;;;1.43;100.00;99551.72;5066784;28;47155;-81
2022/12/14 02:40:10;;;;;;;;;53.25;38.75;;;;;1.35;100.00;99560.75;5073179;28;46467;-82
2022/12/14 02:42:54;;;;;;;;;46.00;40.25;;;;;1.23;100.00;99569.22;5054128;28;45824;-82
2022/12/14 02:45:34;;;;;;;;;47.00;37.25;;;;;1.16;100.00;99568.25;5051531;28;46991;-82
2022/12/14 02:48:06;;;;;;;;;47.50;39.50;;;;;1.08;100.00;99565.59;5065837;28;46920;-82
2022/12/14 02:50:58;;;;;;;;;53.50;38.50;;;;;0.94;100.00;99540.19;5070218;28;45879;-81
2022/12/14 02:53:48;;;;;;;;;54.00;40.00;;;;;1.02;100.00;99544.72;5054913;28;45720;-82
2022/12/14 02:56:27;;;;;;;;;54.25;40.75;;;;;0.91;100.00;99534.31;5039823;28;46393;-83
2022/12/14 02:58:53;;;;;;;;;48.50;33.75;;;;;0.98;100.00;99537.97;5053024;28;47163;-83
2022/12/14 03:01:26;;;;;;;;;41.25;33.25;;;;;0.97;100.00;99536.28;5047295;28;45726;-81
2022/12/14 03:03:52;;;;;;;;;48.50;40.00;;;;;0.89;100.00;99510.19;5046220;28;45665;-80
2022/12/14 03:06:25;;;;;;;;;40.25;35.25;;;;;0.81;100.00;99500.28;5053129;28;46311;-81
2022/12/14 03:08:59;;;;;;;;;45.00;38.50;;;;;1.00;100.00;99530.53;5061558;28;45494;-80
2022/12/14 03:11:36;;;;;;;;;45.00;38.00;;;;;0.86;100.00;99515.94;5053383;28;45466;-81
2022/12/14 03:14:16;;;;;;;;;41.25;34.75;;;;;1.05;100.00;99536.25;5059984;28;45683;-81
2022/12/14 03:16:57;;;;;;;;;49.00;38.25;;;;;1.08;100.00;99519.72;5059187;28;46297;-81
2022/12/14 03:19:36;;;;;;;;;46.00;39.25;;;;;1.05;100.00;99502.00;5064165;28;45403;-80
2022/12/14 03:22:13;;;;;;;;;42.75;37.50;;;;;1.36;100.00;99535.38;5054745;28;45782;-82
2022/12/14 03:24:48;;;;;;;;;48.25;38.75;;;;;1.27;100.00;99520.25;5083646;28;45489;-83
2022/12/14 03:27:26;;;;;;;;;42.75;34.50;;;;;1.39;100.00;99535.03;5064695;28;46283;-83
2022/12/14 03:30:13;;;;;;;;;37.25;33.25;;;;;1.41;100.00;99533.84;5077458;28;45734;-84
2022/12/14 03:32:47;;;;;;;;;48.75;37.00;;;;;1.50;100.00;99531.91;5069838;28;45475;-81
2022/12/14 03:35:38;;;;;;;;;43.50;35.00;;;;;1.57;100.00;99535.59;5056694;28;45536;-83
2022/12/14 03:38:11;;;;;;;;;42.75;34.25;;;;;1.64;100.00;99538.41;5063338;28;45432;-81
2022/12/14 03:41:11;;;;;;;;;48.75;37.75;;;;;1.73;100.00;99548.13;5055060;28;48292;-83
2022/12/14 03:43:48;;;;;;;;;37.00;31.25;;;;;1.76;100.00;99536.09;5032726;28;45407;-82
2022/12/14 03:46:30;;;;;;;;;47.25;33.50;;;;;1.68;100.00;99519.97;5068051;28;45457;-82
2022/12/14 03:49:11;;;;;;;;;42.50;36.00;;;;;1.83;100.00;99533.53;5071303;28;45411;-82
2022/12/14 03:52:05;;;;;;;;;43.25;36.50;;;;;1.88;100.00;99525.69;5074602;28;47157;-81
2022/12/14 03:54:36;;;;;;;;;51.00;37.00;;;;;1.92;100.00;99518.91;5040242;28;45420;-82
2022/12/14 03:57:20;;;;;;;;;43.25;38.00;;;;;1.96;100.00;99517.50;5056811;28;45751;-83
2022/12/14 04:00:00;;;;;;;;;34.75;30.00;;;;;1.82;100.00;99502.94;5072687;27;46928;-83
2022/12/14 04:02:34;;;;;;;;;40.50;32.25;;;;;1.84;100.00;99509.03;5058921;28;45345;-82
2022/12/14 04:05:09;;;;;;;;;31.75;27.75;;;;;1.83;100.00;99511.91;5072985;28;45378;-82
2022/12/14 04:07:45;;;;;;;;;55.75;37.00;;;;;1.72;100.00;99503.22;5065098;28;45521;-83
2022/12/14 04:18:58;;;;;;;;;37.00;30.25;;;;;1.77;100.00;99484.56;5067503;28;45529;-82
2022/12/14 04:21:44;;;;;;;;;52.25;40.00;;;;;1.71;100.00;99469.09;5070861;27;46084;-81
2022/12/14 04:27:22;;;;;;;;;41.00;31.50;;;;;1.93;100.00;99472.78;5094847;27;45544;-80
2022/12/14 04:29:59;;;;;;;;;43.50;35.75;;;;;2.00;100.00;99469.31;5087568;27;45803;-81
2022/12/14 04:32:34;;;;;;;;;42.75;38.00;;;;;2.07;100.00;99478.38;5066432;28;45714;-81
2022/12/14 04:35:15;;;;;;;;;47.25;39.25;;;;;2.02;100.00;99484.34;5073013;27;45345;-82
2022/12/14 04:37:47;;;;;;;;;38.25;33.25;;;;;1.97;100.00;99481.34;5085448;27;45420;-83
2022/12/14 04:40:42;;;;;;;;;45.25;36.00;;;;;1.97;100.00;99502.13;5080188;27;45523;-83
2022/12/14 04:43:13;;;;;;;;;38.50;31.75;;;;;1.79;100.00;99473.56;5090566;27;45648;-83
2022/12/14 04:45:51;;;;;;;;;43.75;36.50;;;;;1.72;100.00;99481.59;5068200;27;46139;-83
2022/12/14 04:48:38;;;;;;;;;40.75;33.25;;;;;1.90;100.00;99472.28;5076165;27;45734;-81
2022/12/14 04:51:12;;;;;;;;;42.25;33.00;;;;;2.03;100.00;99498.69;5087652;27;45755;-80
2022/12/14 04:53:41;;;;;;;;;41.75;30.75;;;;;1.89;100.00;99486.84;5087839;27;45681;-82
2022/12/14 04:56:06;;;;;;;;;44.50;35.50;;;;;2.09;100.00;99495.25;5087087;27;45514;-82
2022/12/14 04:58:34;;;;;;;;;36.00;35.25;;;;;2.15;100.00;99516.16;5086567;27;45853;-80
2022/12/14 05:01:14;;;;;;;;;33.00;31.25;;;;;2.18;100.00;99498.72;5090029;27;45406;-83
2022/12/14 05:04:10;;;;;;;;;44.00;36.00;;;;;2.33;100.00;99520.38;5072707;27;46073;-82
2022/12/14 05:07:03;;;;;;;;;40.50;33.75;;;;;2.33;100.00;99523.06;5068460;27;47258;-81
2022/12/14 05:10:18;;;;;;;;;38.00;29.75;;;;;2.37;100.00;99511.69;5081295;27;46276;-82
2022/12/14 05:13:12;;;;;;;;;43.50;37.75;;;;;2.19;100.00;99498.53;5061414;27;45948;-82
2022/12/14 05:15:49;;;;;;;;;40.75;35.00;;;;;2.32;100.00;99499.75;5076660;27;47365;-83
2022/12/14 05:18:16;;;;;;;;;37.50;35.75;;;;;2.32;100.00;99502.44;5068960;28;46485;-81
2022/12/14 05:20:42;;;;;;;;;36.00;29.25;;;;;2.18;100.00;99494.13;5073663;27;45834;-82
2022/12/14 05:23:07;;;;;;;;;34.75;31.00;;;;;2.18;100.00;99496.84;5088509;27;45591;-82
2022/12/14 05:25:39;;;;;;;;;43.00;36.25;;;;;2.01;100.00;99452.91;5071050;27;45713;-83
2022/12/14 05:28:07;;;;;;;;;37.25;35.25;;;;;2.17;100.00;99462.72;5085947;27;46914;-85
2022/12/14 05:30:33;;;;;;;;;34.50;30.75;;;;;2.20;100.00;99465.06;5099323;27;45815;-85
2022/12/14 05:32:59;;;;;;;;;42.25;35.75;;;;;2.37;100.00;99489.22;5082612;27;45565;-82
2022/12/14 05:35:24;;;;;;;;;44.50;37.00;;;;;2.24;100.00;99469.03;5089245;27;45860;-82
2022/12/14 05:37:50;;;;;;;;;51.75;37.50;;;;;2.32;100.00;99494.31;5083383;27;45429;-83
2022/12/14 05:40:15;;;;;;;;;49.75;41.00;;;;;2.25;100.00;99484.25;5068727;27;45644;-82
2022/12/14 05:42:41;;;;;;;;;33.25;25.25;;;;;2.06;100.00;99465.88;5082469;27;45805;-83
2022/12/14 05:45:08;;;;;;;;;43.00;35.50;;;;;2.16;100.00;99482.66;5089107;27;45485;-83
2022/12/14 05:47:33;;;;;;;;;44.00;38.75;;;;;2.23;100.00;99505.25;5091879;27;45592;-83
2022/12/14 05:49:59;;;;;;;;;36.25;30.00;;;;;2.18;100.00;99483.31;5096190;27;45841;-84
2022/12/14 05:52:25;;;;;;;;;43.00;32.50;;;;;2.14;100.00;99479.31;5086280;27;45489;-84
2022/12/14 05:54:51;;;;;;;;;45.00;35.75;;;;;2.22;100.00;99492.75;5090399;27;45975;-83
2022/12/14 05:57:17;;;;;;;;;36.50;34.75;;;;;2.42;100.00;99527.38;5103823;27;46880;-83
2022/12/14 05:59:42;;;;;;;;;43.75;36.00;;;;;2.55;100.00;99535.66;5084090;27;46333;-82
2022/12/14 06:02:08;;;;;;;;;42.00;34.50;;;;;2.53;100.00;99516.09;5081975;27;46910;-81
2022/12/14 06:04:34;;;;;;;;;38.50;36.00;;;;;2.66;100.00;99534.34;5089430;27;46605;-84
2022/12/14 06:07:00;;;;;;;;;32.25;26.75;;;;;2.69;100.00;99531.28;5074307;28;47928;-82
2022/12/14 06:09:26;;;;;;;;;43.75;36.25;;;;;2.66;100.00;99531.66;5065295;28;45965;-83
2022/12/14 06:11:51;;;;;;;;;42.25;31.00;;;;;2.67;100.00;99529.81;5069391;28;45494;-85
2022/12/14 06:14:17;;;;;;;;;38.75;31.50;;;;;2.57;100.00;99517.38;5052103;28;46128;-86
2022/12/14 06:16:44;;;;;;;;;37.50;31.25;;;;;2.45;100.00;99502.63;5048167;28;47927;-85
2022/12/14 06:19:11;;;;;;;;;42.75;36.25;;;;;2.65;100.00;99535.41;5057427;28;45399;-84
2022/12/14 06:21:39;;;;;;;;;38.50;30.00;;;;;2.58;100.00;99529.06;5077105;28;45446;-84
2022/12/14 06:24:06;;;;;;;;;41.75;31.75;;;;;2.53;100.00;99532.31;5056859;28;45807;-84
2022/12/14 06:26:35;;;;;;;;;39.50;35.50;;;;;2.60;100.00;99522.41;5071861;28;47024;-85
2022/12/14 06:29:06;;;;;;;;;38.50;32.00;;;;;2.62;100.00;99514.97;5068110;28;45437;-87
2022/12/14 06:31:33;;;;;;;;;40.50;35.00;;;;;2.66;100.00;99510.00;5070510;28;45462;-86
2022/12/14 06:34:02;;;;;;;;;50.25;33.00;;;;;2.63;100.00;99511.22;5065319;27;45786;-89
2022/12/14 06:36:33;;;;;;;;;43.00;38.00;;;;;2.76;100.00;99534.09;5074193;27;46822;-84
2022/12/14 06:39:26;;;;;;;;;43.00;32.50;;;;;2.74;100.00;99533.41;5071114;28;46007;-89
2022/12/14 06:41:57;;;;;;;;;34.75;28.75;;;;;2.59;100.00;99518.03;5062269;28;44743;-90
2022/12/14 06:44:22;;;;;;;;;44.75;35.75;;;;;2.51;100.00;99499.19;5065404;28;45741;-87
2022/12/14 06:46:48;;;;;;;;;44.00;34.75;;;;;2.80;100.00;99527.28;5073705;28;45705;-87
2022/12/14 06:49:15;;;;;;;;;47.50;37.75;;;;;2.58;100.00;99492.00;5069425;28;46185;-83
2022/12/14 06:51:42;;;;;;;;;47.25;34.50;;;;;2.80;100.00;99527.28;5074826;28;45455;-84
2022/12/14 06:54:10;;;;;;;;;41.50;34.50;;;;;2.76;100.00;99523.25;5056515;28;46811;-84
2022/12/14 06:56:37;;;;;;;;;49.00;38.25;;;;;2.59;100.00;99479.28;5056861;28;46435;-87
2022/12/14 06:59:04;;;;;;;;;41.75;33.25;;;;;2.53;100.00;99493.56;5059036;28;45986;-84
2022/12/14 07:01:38;;;;;;;;;39.50;35.00;;;;;2.93;100.00;99545.53;5067121;28;45411;-88
2022/12/14 07:04:04;;;;;;;;;41.25;33.75;;;;;2.71;100.00;99520.25;5040406;28;45659;-78
2022/12/14 07:06:33;;;;;;;;;30.00;29.25;;;;;2.98;100.00;99567.50;5065702;28;45527;-78
2022/12/14 07:09:00;;;;;;;;;37.50;33.75;;;;;2.80;100.00;99532.69;5048387;28;45525;-86
2022/12/14 07:11:27;;;;;;;;;50.50;35.50;;;;;2.74;100.00;99539.69;5058014;28;45440;-86
2022/12/14 07:13:54;;;;;;;;;35.75;31.50;;;;;2.55;100.00;99503.19;5062990;28;45533;-84
2022/12/14 07:16:22;;;;;;;;;39.25;32.75;;;;;2.87;100.00;99544.41;5060468;28;47645;-85
2022/12/14 07:18:48;;;;;;;;;35.75;32.75;;;;;2.78;100.00;99523.91;5058748;28;45605;-82
2022/12/14 07:21:24;;;;;;;;;38.00;34.50;;;;;2.97;100.00;99553.09;5076217;28;44801;-89
2022/12/14 07:23:55;;;;;;;;;38.25;32.75;;;;;3.10;100.00;99565.13;5070681;28;46774;-87
2022/12/14 07:26:24;;;;;;;;;42.50;32.75;;;;;3.25;100.00;99590.34;5082158;28;45701;-89
2022/12/14 07:28:53;;;;;;;;;45.25;32.75;;;;;3.06;100.00;99574.69;5089585;27;44755;-89
2022/12/14 07:31:21;;;;;;;;;37.75;29.50;;;;;2.96;100.00;99572.25;5093806;27;45338;-80
2022/12/14 07:33:47;;;;;;;;;37.00;31.25;;;;;2.83;100.00;99575.63;5078140;27;45644;-83
2022/12/14 07:36:27;;;;;;;;;39.75;33.00;;;;;2.97;100.00;99596.44;5064564;28;47147;-86
2022/12/14 07:38:54;;;;;;;;;46.25;35.25;;;;;2.77;100.00;99571.81;5065594;28;44864;-86
2022/12/14 07:41:23;;;;;;;;;40.00;33.50;;;;;3.15;100.00;99627.72;5079854;28;44745;-84
2022/12/14 07:43:50;;;;;;;;;40.00;34.75;;;;;2.91;100.00;99577.41;5076782;28;46257;-83
2022/12/14 07:46:27;;;;;;;;;36.75;31.50;;;;;3.29;100.00;99615.16;5074215;28;46985;-80
2022/12/14 07:48:54;;;;;;;;;37.75;34.75;;;;;3.20;100.00;99591.94;5060203;28;45475;-73
2022/12/14 07:51:23;;;;;;;;;41.00;33.75;;;;;3.33;100.00;99601.03;5063366;28;45868;-77
2022/12/14 07:53:50;;;;;;;;;33.25;28.75;;;;;3.36;100.00;99597.94;5045421;28;45422;-76
2022/12/14 07:56:22;;;;;;;;;36.25;31.75;;;;;3.33;100.00;99587.50;5049366;28;45864;-74
2022/12/14 07:58:49;;;;;;;;;47.50;34.50;;;;;3.58;100.00;99608.84;5049529;28;45569;-76
2022/12/14 08:01:19;;;;;;;;;35.50;27.50;;;;;3.53;100.00;99597.72;5048630;28;45459;-80
2022/12/14 08:03:47;;;;;;;;;48.25;32.50;;;;;3.53;100.00;99608.56;5050092;28;45565;-80
2022/12/14 08:06:14;;;;;;;;;37.50;33.50;;;;;3.54;100.00;99607.53;5051214;28;46955;-81
2022/12/14 08:08:40;;;;;;;;;34.25;30.75;;;;;3.37;100.00;99577.13;5036755;28;45442;-81
2022/12/14 08:11:06;;;;;;;;;33.00;29.00;;;;;3.66;100.00;99619.56;5050746;28;45865;-80
2022/12/14 08:13:31;;;;;;;;;44.50;35.00;;;;;3.74;100.00;99620.47;5068381;28;45946;-81
2022/12/14 08:16:14;;;;;;;;;34.75;29.75;;;;;3.86;100.00;99624.34;5040759;28;46369;-77
2022/12/14 08:18:41;;;;;;;;;37.00;30.00;;;;;3.92;100.00;99626.28;5034535;28;46070;-76
2022/12/14 08:21:08;;;;;;;;;38.75;32.50;;;;;3.89;100.00;99629.38;5036246;28;45490;-77
2022/12/14 08:23:34;;;;;;;;;38.75;34.75;;;;;3.85;100.00;99618.09;5039711;28;45427;-80
2022/12/14 08:26:01;;;;;;;;;31.75;28.75;;;;;3.85;100.00;99628.13;5048905;28;46925;-81
2022/12/14 08:28:35;;;;;;;;;38.50;34.75;;;;;3.94;100.00;99634.22;5048003;28;45760;-74
2022/12/14 08:31:10;;;;;;;;;42.25;31.25;;;;;3.95;100.00;99633.22;5036526;28;45759;-75
2022/12/14 08:33:37;;;;;;;;;39.50;34.00;;;;;4.02;100.00;99629.53;5048664;28;45986;-75
2022/12/14 08:36:14;;;;;;;;;42.50;34.00;;;;;4.10;100.00;99630.44;5035533;28;47151;-79
2022/12/14 08:38:40;;;;;;;;;39.75;33.25;;;;;4.18;100.00;99616.75;5048021;28;45990;-81
2022/12/14 08:41:08;;;;;;;;;42.25;33.50;;;;;4.32;100.00;99618.53;5038472;28;45398;-76
2022/12/14 08:43:35;;;;;;;;;40.25;36.25;;;;;4.42;100.00;99623.63;5042086;28;45636;-75
2022/12/14 08:46:00;;;;;;;;;38.50;37.00;;;;;4.39;100.00;99632.16;5047716;28;45364;-80
2022/12/14 08:48:27;;;;;;;;;45.25;35.75;;;;;4.28;100.00;99611.84;5050308;28;45585;-75
2022/12/14 08:50:53;;;;;;;;;45.75;34.50;;;;;4.53;100.00;99638.53;5044110;28;45458;-76
2022/12/14 08:53:19;;;;;;;;;41.25;34.50;;;;;4.65;100.00;99639.66;5059713;28;45699;-76
2022/12/14 08:55:45;;;;;;;;;83.75;66.00;;;;;4.61;100.00;99632.97;5059064;28;45500;-79
2022/12/14 08:58:11;;;;;;;;;47.50;36.75;;;;;4.57;100.00;99639.81;5073784;28;45836;-79
2022/12/14 09:00:39;;;;;;;;;44.25;35.00;;;;;4.65;100.00;99649.69;5048593;28;45458;-79
2022/12/14 09:03:05;;;;;;;;;44.50;36.50;;;;;4.62;100.00;99650.91;5044778;28;46024;-79
2022/12/14 09:05:30;;;;;;;;;37.00;34.00;;;;;4.56;100.00;99651.72;5037093;28;47027;-79
2022/12/14 09:07:56;;;;;;;;;49.75;37.00;;;;;4.52;100.00;99655.84;5053321;28;45625;-79
2022/12/14 09:10:22;;;;;;;;;38.75;33.50;;;;;4.54;100.00;99654.63;5055293;28;46271;-80
2022/12/14 09:12:47;;;;;;;;;43.00;35.50;;;;;4.66;100.00;99656.81;5054687;28;45782;-80
2022/12/14 09:15:13;;;;;;;;;41.25;37.00;;;;;4.72;100.00;99666.88;5045764;28;46438;-80
2022/12/14 09:17:38;;;;;;;;;37.50;33.75;;;;;4.86;100.00;99673.25;5056877;28;45877;-80
2022/12/14 09:20:05;;;;;;;;;43.50;37.00;;;;;5.03;100.00;99671.91;5059567;28;45712;-80
2022/12/14 09:22:31;;;;;;;;;43.00;36.25;;;;;5.21;100.00;99675.97;5063912;28;45836;-76
2022/12/14 09:24:56;;;;;;;;;37.00;33.25;;;;;5.33;100.00;99687.13;5062764;28;45411;-78
2022/12/14 09:27:22;;;;;;;;;43.50;32.75;;;;;5.47;100.00;99689.72;5063625;28;45363;-79
2022/12/14 09:29:49;;;;;;;;;48.00;34.50;;;;;5.66;100.00;99685.41;5049282;28;45466;-79
2022/12/14 09:32:18;;;;;;;;;45.50;36.25;;;;;5.75;100.00;99686.06;5076375;28;45718;-91
2022/12/14 09:34:43;;;;;;;;;42.25;35.25;;;;;5.78;100.00;99685.66;5059956;28;47421;-83
2022/12/14 09:37:09;;;;;;;;;42.50;33.75;;;;;6.04;100.00;99708.59;5060890;28;45726;-85
2022/12/14 09:39:36;;;;;;;;;43.00;35.50;;;;;5.75;100.00;99622.63;5055337;28;45532;-87
2022/12/14 09:42:19;;;;;;;;;45.00;37.00;;;;;6.29;100.00;99697.16;5052416;28;46751;-85
2022/12/14 09:45:02;;;;;;;;;26.00;22.75;;;;;6.21;100.00;99679.09;5043476;28;46759;-87
2022/12/14 09:47:55;;;;;;;;;42.00;35.75;;;;;6.25;100.00;99657.75;5054130;28;45482;-85
2022/12/14 09:50:35;;;;;;;;;50.00;39.25;;;;;6.68;100.00;99703.69;5074455;28;45880;-87
2022/12/14 09:53:17;;;;;;;;;50.75;37.75;;;;;6.54;100.00;99648.31;5058652;28;45873;-88
2022/12/14 09:55:49;;;;;;;;;34.50;31.50;;;;;6.94;100.00;99699.25;5072382;28;46190;-85
2022/12/14 09:58:32;;;;;;;;;39.00;34.75;;;;;6.99;100.00;99699.44;5054803;28;45585;-85
2022/12/14 10:01:36;;;;;;;;;;;;;;;;;;;;;
2022/12/14 10:04:44;;;;;;;;;47.75;35.00;;;;;6.84;100.00;99617.91;5065490;28;71826;-85
2022/12/14 10:07:55;;;;;;;;;47.50;35.00;;;;;7.39;100.00;99700.22;5070629;28;45693;-86
2022/12/14 10:10:52;;;;;;;;;44.75;35.25;;;;;7.16;100.00;99645.34;5057756;28;45342;-88
2022/12/14 10:13:35;;;;;;;;;50.00;36.00;;;;;7.45;100.00;99703.97;5071367;28;45375;-88
2022/12/14 10:16:21;;;;;;;;;42.75;33.00;;;;;7.06;100.00;99662.94;5078425;28;45735;-87
2022/12/14 10:19:27;;;;;;;;;51.00;35.50;;;;;7.21;100.00;99689.97;5058370;28;46896;-86
2022/12/14 10:22:21;;;;;;;;;42.25;35.75;;;;;7.06;100.00;99683.94;5023024;28;45581;-86
2022/12/14 10:25:10;;;;;;;;;43.00;36.50;;;;;7.33;100.00;99719.34;5049895;28;45424;-86
2022/12/14 10:27:37;;;;;;;;;44.00;34.50;;;;;7.11;100.00;99669.66;5051059;28;45363;-85
2022/12/14 10:30:25;;;;;;;;;;;;;;;;;;;;;
2022/12/14 10:33:03;;;;;;;;;42.50;36.00;;;;;7.16;100.00;99676.16;5073699;28;71609;-86
2022/12/14 10:35:37;;;;;;;;;47.75;36.25;;;;;7.31;100.00;99707.81;5049105;28;45439;-87
2022/12/14 10:38:15;;;;;;;;;44.25;35.00;;;;;7.11;100.00;99703.22;5080719;28;46017;-84
2022/12/14 10:40:51;;;;;;;;;44.00;35.00;;;;;6.57;100.00;99658.81;5048768;28;45539;-87
2022/12/14 10:43:25;;;;;;;;;42.75;35.00;;;;;6.98;100.00;99714.97;5045549;28;46020;-84
2022/12/14 10:46:09;;;;;;;;;48.00;36.50;;;;;6.96;100.00;99689.84;5048333;28;45736;-84
2022/12/14 10:48:56;;;;;;;;;52.50;38.25;;;;;7.18;100.00;99709.50;5048234;28;45751;-79
2022/12/14 10:51:25;;;;;;;;;40.00;35.00;;;;;7.19;100.00;99716.63;5050867;28;45818;-88
2022/12/14 10:53:50;;;;;;;;;41.75;35.00;;;;;7.13;100.00;99712.03;5062059;28;46101;-81
2022/12/14 10:56:23;;;;;;;;;45.75;36.00;;;;;7.16;100.00;99714.31;5062516;28;45501;-81
2022/12/14 10:59:27;;;;;;;;;53.00;38.50;;;;;7.19;100.00;99716.63;5066277;28;45386;-88
2022/12/14 11:02:29;;;;;;;;;44.75;37.75;;;;;6.97;100.00;99668.84;5048969;28;45584;-89
2022/12/14 11:05:15;;;;;;;;;43.25;34.75;;;;;7.08;100.00;99665.50;5041997;28;45674;-89
2022/12/14 11:08:07;;;;;;;;;40.25;34.25;;;;;6.98;100.00;99656.91;5073493;28;45811;-87
2022/12/14 11:10:38;;;;;;;;;40.75;32.75;;;;;7.34;100.00;99732.75;5055804;28;45713;-87
2022/12/14 11:13:12;;;;;;;;;54.00;38.00;;;;;7.26;100.00;99716.63;5052039;28;47160;-89
2022/12/14 11:15:49;;;;;;;;;52.25;37.25;;;;;6.49;100.00;99668.03;5050967;28;45870;-87
2022/12/14 11:18:15;;;;;;;;;48.50;35.25;;;;;6.57;100.00;99709.72;5040179;28;45582;-81
2022/12/14 11:20:56;;;;;;;;;51.25;39.25;;;;;6.32;100.00;99666.78;5076253;28;45454;-79
2022/12/14 11:23:32;;;;;;;;;43.25;34.00;;;;;6.62;100.00;99712.69;5069593;28;45573;-88
2022/12/14 11:26:02;;;;;;;;;54.00;40.50;;;;;6.67;100.00;99712.88;5047803;28;45930;-82
2022/12/14 11:28:35;;;;;;;;;37.25;30.75;;;;;6.69;100.00;99716.22;5051561;28;45513;-80
2022/12/14 11:31:27;;;;;;;;;45.75;36.50;;;;;6.45;100.00;99720.41;5070937;28;45832;-85
2022/12/14 11:33:56;;;;;;;;;42.00;33.25;;;;;6.27;100.00;99729.16;5045793;28;47102;-85
2022/12/14 11:36:28;;;;;;;;;44.75;34.00;;;;;6.23;100.00;99722.44;5051839;28;44792;-86
2022/12/14 11:39:18;;;;;;;;;48.00;38.00;;;;;6.16;100.00;99727.88;5047466;28;45479;-85
2022/12/14 11:41:47;;;;;;;;;45.25;36.25;;;;;6.27;100.00;99743.63;5054456;28;45972;-82
2022/12/14 11:44:13;;;;;;;;;45.75;36.00;;;;;6.36;100.00;99728.78;5066070;28;46279;-80
2022/12/14 11:47:34;;;;;;;;;39.50;33.25;;;;;6.52;100.00;99738.44;5052974;28;46162;-81
2022/12/14 11:50:02;;;;;;;;;41.00;34.75;;;;;6.17;100.00;99711.34;5067165;27;45866;-85
2022/12/14 11:52:37;;;;;;;;;32.75;30.00;;;;;6.33;100.00;99714.72;5055130;28;46070;-85
2022/12/14 11:55:13;;;;;;;;;52.00;37.50;;;;;6.18;100.00;99709.44;5079501;28;46250;-88
2022/12/14 11:57:51;;;;;;;;;42.75;33.00;;;;;6.14;100.00;99722.66;5056257;28;46033;-82
2022/12/14 12:00:25;;;;;;;;;52.25;40.00;;;;;6.13;100.00;99706.53;5044745;28;45375;-86